Time;durP1;ratioP1;P1;durP2;ratioP2;P2;SDS_P1;SDS_P2;PMS_P1;PMS_P2;Temp;Humidity;BMP_temperature;BMP_pressure;BME280_temperature;BME280_humidity;BME280_pressure;Samples;Min_cycle;Max_cycle;Signal;HPM_P1;HPM_P2
2023/03/30 00:01:16;;;;;;;1.38;0.90;;;18.50;97.00;;;;;;4932120;28;20035;-84
2023/03/30 00:03:43;;;;;;;5.13;1.40;;;18.50;96.90;;;;;;4913490;28;20027;-86
2023/03/30 00:06:09;;;;;;;2.83;1.27;;;18.50;96.90;;;;;;4950040;28;20035;-85
2023/03/30 00:08:36;;;;;;;2.40;1.38;;;18.50;97.00;;;;;;4925104;29;20114;-84
2023/03/30 00:11:05;;;;;;;2.95;1.30;;;18.40;96.70;;;;;;4944835;28;20038;-85
2023/03/30 00:13:33;;;;;;;2.30;1.40;;;18.40;96.50;;;;;;4933027;29;20106;-86
2023/03/30 00:15:59;;;;;;;2.73;1.20;;;18.40;96.10;;;;;;4930500;28;20106;-87
2023/03/30 00:18:25;;;;;;;3.03;1.20;;;18.40;96.10;;;;;;4920341;28;20027;-86
2023/03/30 00:20:51;;;;;;;4.00;1.20;;;18.40;96.60;;;;;;4943742;28;20034;-86
2023/03/30 00:23:18;;;;;;;2.22;1.20;;;18.30;95.90;;;;;;4926809;29;20035;-86
2023/03/30 00:25:46;;;;;;;3.55;1.23;;;18.30;96.10;;;;;;4917638;29;20422;-85
2023/03/30 00:28:12;;;;;;;2.30;1.10;;;18.30;95.90;;;;;;4922663;29;20054;-85
2023/03/30 00:30:38;;;;;;;2.33;1.10;;;18.30;96.60;;;;;;4947471;28;20182;-86
2023/03/30 00:33:03;;;;;;;2.30;1.20;;;18.20;96.40;;;;;;4926716;28;20863;-84
2023/03/30 00:35:30;;;;;;;3.07;1.30;;;18.20;96.90;;;;;;4935041;28;20039;-87
2023/03/30 00:38:00;;;;;;;2.15;1.20;;;18.20;96.80;;;;;;4910409;29;20700;-86
2023/03/30 00:40:27;;;;;;;1.20;0.90;;;18.20;96.10;;;;;;4944024;28;20028;-84
2023/03/30 00:43:05;;;;;;;3.85;1.40;;;18.20;96.60;;;;;;4929549;28;20572;-84
2023/03/30 00:45:33;;;;;;;1.60;1.10;;;18.10;94.90;;;;;;4946009;28;20048;-84
2023/03/30 00:48:19;;;;;;;1.80;1.15;;;18.10;96.10;;;;;;4928843;28;20598;-84
2023/03/30 00:50:59;;;;;;;2.15;1.13;;;18.00;95.40;;;;;;4919982;29;20086;-85
2023/03/30 00:53:30;;;;;;;2.85;1.00;;;18.00;95.70;;;;;;4930347;29;20027;-85
2023/03/30 00:55:57;;;;;;;2.28;1.10;;;18.00;96.30;;;;;;4909478;28;20562;-84
2023/03/30 00:58:24;;;;;;;2.10;1.10;;;18.00;96.30;;;;;;4932353;29;20035;-85
2023/03/30 01:00:50;;;;;;;2.90;1.10;;;17.90;96.30;;;;;;4929532;28;20105;-85
2023/03/30 01:03:20;;;;;;;2.70;1.00;;;18.00;96.10;;;;;;4931283;29;20110;-86
2023/03/30 01:05:46;;;;;;;2.25;1.00;;;17.90;96.50;;;;;;4914842;28;20035;-85
2023/03/30 01:08:12;;;;;;;2.30;1.10;;;17.90;95.90;;;;;;4931411;29;20023;-86
2023/03/30 01:10:39;;;;;;;2.53;1.00;;;17.90;96.00;;;;;;4937970;28;20024;-85
2023/03/30 01:13:05;;;;;;;2.55;1.10;;;17.80;96.00;;;;;;4935270;28;20238;-86
2023/03/30 01:15:35;;;;;;;3.22;1.00;;;17.80;95.90;;;;;;4934230;28;20145;-82
2023/03/30 01:18:18;;;;;;;2.78;1.08;;;17.80;95.60;;;;;;4933563;29;20039;-85
2023/03/30 01:21:22;;;;;;;1.53;0.90;;;17.80;95.20;;;;;;4899842;29;20028;-87
2023/03/30 01:24:17;;;;;;;2.42;1.10;;;17.70;95.40;;;;;;4930327;29;20031;-85
2023/03/30 01:26:52;;;;;;;2.45;0.98;;;17.70;94.20;;;;;;4915594;29;20035;-85
2023/03/30 01:29:23;;;;;;;2.25;0.80;;;17.60;94.60;;;;;;4933988;29;20436;-83
2023/03/30 01:32:04;;;;;;;1.33;0.80;;;17.60;96.10;;;;;;4928992;28;20302;-84
2023/03/30 01:34:30;;;;;;;2.20;0.90;;;17.50;96.00;;;;;;4937213;28;20040;-86
2023/03/30 01:37:11;;;;;;;1.77;0.90;;;17.50;96.00;;;;;;4948774;28;20230;-86
2023/03/30 01:39:50;;;;;;;3.42;1.20;;;17.50;95.60;;;;;;4935952;28;20035;-85
2023/03/30 01:42:22;;;;;;;4.05;1.10;;;17.50;95.10;;;;;;4934869;28;20643;-85
2023/03/30 01:44:58;;;;;;;4.07;1.20;;;17.40;95.60;;;;;;4930206;28;20048;-85
2023/03/30 01:47:32;;;;;;;1.45;0.73;;;17.30;95.30;;;;;;4936488;28;20049;-87
2023/03/30 01:50:08;;;;;;;2.35;1.05;;;17.40;95.70;;;;;;4882045;29;20439;-86
2023/03/30 01:52:41;;;;;;;4.47;1.00;;;17.30;95.50;;;;;;4935009;28;20478;-84
2023/03/30 01:55:36;;;;;;;1.95;1.00;;;17.30;96.00;;;;;;4936465;28;20043;-85
2023/03/30 01:58:36;;;;;;;2.23;1.00;;;17.30;94.60;;;;;;4929026;28;20035;-87
2023/03/30 02:01:05;;;;;;;2.75;0.95;;;17.30;95.60;;;;;;4928666;28;20047;-85
2023/03/30 02:03:35;;;;;;;2.92;1.00;;;17.20;95.80;;;;;;4934770;28;20035;-85
2023/03/30 02:06:12;;;;;;;1.70;0.98;;;17.20;96.20;;;;;;4909855;28;20510;-85
2023/03/30 02:08:40;;;;;;;1.67;0.90;;;17.20;95.10;;;;;;4947016;28;20070;-85
2023/03/30 02:11:06;;;;;;;2.40;1.03;;;17.20;95.80;;;;;;4935694;28;20693;-85
2023/03/30 02:13:32;;;;;;;1.65;0.90;;;17.20;95.90;;;;;;4931593;28;20035;-84
2023/03/30 02:16:08;;;;;;;2.35;1.00;;;17.30;96.00;;;;;;4934685;28;20370;-87
2023/03/30 02:18:37;;;;;;;2.35;1.00;;;17.30;95.40;;;;;;4938594;29;20058;-86
2023/03/30 02:21:03;;;;;;;1.70;1.00;;;17.30;96.20;;;;;;4896686;29;20074;-86
2023/03/30 02:23:35;;;;;;;2.03;1.00;;;17.30;96.10;;;;;;4938244;28;20024;-85
2023/03/30 02:26:01;;;;;;;1.65;0.90;;;17.40;95.80;;;;;;4948165;28;20214;-83
2023/03/30 02:28:27;;;;;;;2.58;1.00;;;17.40;96.10;;;;;;4942476;28;20412;-86
2023/03/30 02:30:53;;;;;;;3.90;1.00;;;17.50;96.20;;;;;;4946959;28;20023;-84
2023/03/30 02:33:50;;;;;;;2.27;0.90;;;17.50;95.90;;;;;;4933032;29;20109;-86
2023/03/30 02:36:34;;;;;;;1.67;0.90;;;17.50;90.60;;;;;;4917437;28;20034;-84
2023/03/30 02:39:47;;;;;;;1.83;1.00;;;17.50;94.00;;;;;;4914311;28;20644;-85
2023/03/30 02:42:32;;;;;;;1.92;0.90;;;17.50;95.00;;;;;;4924493;28;20042;-85
2023/03/30 02:45:18;;;;;;;1.73;0.90;;;17.50;95.50;;;;;;4932079;28;20317;-85
2023/03/30 02:48:12;;;;;;;1.57;0.90;;;17.60;95.20;;;;;;4935549;28;20135;-85
2023/03/30 02:50:56;;;;;;;2.35;1.00;;;17.60;94.30;;;;;;4933145;28;20068;-84
2023/03/30 02:53:26;;;;;;;2.50;1.00;;;17.60;96.00;;;;;;4916002;28;20234;-87
2023/03/30 02:56:20;;;;;;;1.70;0.95;;;17.60;95.30;;;;;;4933952;28;20142;-85
2023/03/30 02:59:09;;;;;;;2.00;0.90;;;17.50;93.90;;;;;;4927981;28;20447;-88
2023/03/30 03:01:47;;;;;;;2.17;0.90;;;17.60;94.30;;;;;;4948888;28;20498;-85
2023/03/30 03:04:16;;;;;;;2.38;0.85;;;17.60;95.50;;;;;;4932432;29;20551;-84
2023/03/30 03:06:42;;;;;;;2.53;1.02;;;17.50;96.00;;;;;;4917155;29;20048;-86
2023/03/30 03:09:08;;;;;;;2.33;1.00;;;17.50;95.70;;;;;;4914444;28;20039;-84
2023/03/30 03:11:35;;;;;;;2.73;0.90;;;17.50;95.00;;;;;;4949160;28;20614;-84
2023/03/30 03:14:00;;;;;;;2.80;1.02;;;17.60;95.50;;;;;;4925735;29;20214;-86
2023/03/30 03:16:26;;;;;;;2.50;1.08;;;17.50;95.80;;;;;;4933385;28;20130;-85
2023/03/30 03:18:52;;;;;;;2.83;1.30;;;17.50;95.50;;;;;;4928026;28;20359;-86
2023/03/30 03:21:18;;;;;;;2.05;0.82;;;17.50;96.00;;;;;;4936763;29;20619;-86
2023/03/30 03:23:47;;;;;;;3.03;1.15;;;17.50;95.80;;;;;;4939411;28;20027;-84
2023/03/30 03:26:13;;;;;;;2.43;0.97;;;17.50;95.70;;;;;;4927851;28;20024;-85
2023/03/30 03:28:38;;;;;;;2.30;1.00;;;17.40;95.20;;;;;;4931870;28;20562;-85
2023/03/30 03:31:05;;;;;;;1.75;0.90;;;17.40;95.70;;;;;;4928624;28;20252;-87
2023/03/30 03:33:32;;;;;;;3.65;1.10;;;17.40;95.50;;;;;;4946436;28;20038;-84
2023/03/30 03:35:59;;;;;;;2.47;0.90;;;17.30;95.10;;;;;;4929827;29;20812;-85
2023/03/30 03:38:26;;;;;;;1.95;0.90;;;17.30;95.40;;;;;;4931367;29;20055;-86
2023/03/30 03:40:54;;;;;;;1.60;0.90;;;17.20;95.40;;;;;;4910984;28;20465;-85
2023/03/30 03:43:20;;;;;;;2.45;1.20;;;17.20;95.20;;;;;;4922437;29;20229;-85
2023/03/30 03:45:47;;;;;;;2.10;1.08;;;17.10;95.20;;;;;;4923006;29;20749;-85
2023/03/30 03:48:18;;;;;;;2.43;1.10;;;17.10;95.10;;;;;;4936845;28;20034;-85
2023/03/30 03:50:44;;;;;;;2.90;1.08;;;17.10;95.30;;;;;;4947106;28;20513;-85
2023/03/30 03:53:11;;;;;;;1.90;0.80;;;17.00;95.70;;;;;;4929894;28;20053;-85
2023/03/30 03:55:37;;;;;;;5.90;1.10;;;17.00;95.30;;;;;;4917699;28;20039;-85
2023/03/30 03:58:04;;;;;;;3.30;1.10;;;17.00;95.90;;;;;;4929104;28;20027;-85
2023/03/30 04:00:31;;;;;;;3.38;0.90;;;16.90;95.90;;;;;;4934920;29;20023;-85
2023/03/30 04:02:57;;;;;;;1.63;0.88;;;16.90;95.70;;;;;;4923921;28;20317;-84
2023/03/30 04:05:24;;;;;;;3.05;1.00;;;16.90;96.20;;;;;;4914198;29;20039;-84
2023/03/30 04:07:52;;;;;;;1.75;1.00;;;16.90;96.20;;;;;;4931473;29;20261;-85
2023/03/30 04:10:18;;;;;;;2.17;0.90;;;16.90;96.10;;;;;;4929912;29;20757;-85
2023/03/30 04:12:44;;;;;;;3.67;0.93;;;16.90;96.00;;;;;;4916092;28;20271;-84
2023/03/30 04:15:10;;;;;;;1.88;0.90;;;16.90;96.10;;;;;;4945702;28;20054;-83
2023/03/30 04:17:36;;;;;;;2.90;0.88;;;16.90;96.30;;;;;;4925284;28;20501;-85
2023/03/30 04:20:11;;;;;;;2.73;1.00;;;16.90;96.10;;;;;;4930780;28;20023;-85
2023/03/30 04:22:44;;;;;;;1.77;0.80;;;16.90;95.80;;;;;;4930950;28;20027;-85
2023/03/30 04:25:13;;;;;;;1.38;0.90;;;16.90;96.20;;;;;;4931526;28;20027;-86
2023/03/30 04:27:41;;;;;;;2.23;0.83;;;16.90;96.00;;;;;;4912327;28;20520;-85
2023/03/30 04:30:09;;;;;;;1.58;0.80;;;16.90;96.60;;;;;;4931985;28;20031;-85
2023/03/30 04:32:37;;;;;;;2.55;0.90;;;16.90;96.20;;;;;;4921998;28;20480;-84
2023/03/30 04:35:05;;;;;;;1.67;0.90;;;16.90;96.40;;;;;;4935275;28;20054;-85
2023/03/30 04:37:31;;;;;;;3.80;0.98;;;16.90;96.60;;;;;;4931710;28;20616;-86
2023/03/30 04:40:04;;;;;;;2.30;0.90;;;16.90;96.40;;;;;;4946282;28;20209;-83
2023/03/30 04:42:33;;;;;;;1.73;1.00;;;16.90;96.40;;;;;;4915613;28;20027;-85
2023/03/30 04:45:05;;;;;;;1.83;0.90;;;16.90;96.60;;;;;;4928773;29;20039;-85
2023/03/30 04:47:31;;;;;;;2.63;1.00;;;16.90;96.20;;;;;;4929106;28;20114;-84
2023/03/30 04:49:56;;;;;;;2.53;1.00;;;16.90;96.20;;;;;;4933854;28;20158;-87
2023/03/30 04:52:22;;;;;;;1.65;0.80;;;16.90;96.40;;;;;;4937168;28;20066;-85
2023/03/30 04:54:48;;;;;;;2.60;0.80;;;16.90;96.50;;;;;;4935260;28;20501;-85
2023/03/30 04:57:14;;;;;;;2.33;1.00;;;16.90;96.60;;;;;;4923062;28;20477;-87
2023/03/30 04:59:42;;;;;;;2.10;0.90;;;16.90;96.50;;;;;;4919202;29;20969;-84
2023/03/30 05:02:08;;;;;;;1.60;0.90;;;16.90;96.60;;;;;;4915379;29;20038;-85
2023/03/30 05:04:34;;;;;;;3.53;1.00;;;16.90;96.50;;;;;;4930554;28;20218;-84
2023/03/30 05:07:01;;;;;;;2.25;1.10;;;16.90;96.00;;;;;;4947342;28;20149;-84
2023/03/30 05:09:27;;;;;;;1.70;0.90;;;16.80;95.70;;;;;;4915912;28;20032;-85
2023/03/30 05:11:53;;;;;;;2.45;0.90;;;16.70;95.80;;;;;;4916040;28;20258;-85
2023/03/30 05:14:19;;;;;;;3.13;1.00;;;16.60;96.00;;;;;;4936929;28;20114;-86
2023/03/30 05:16:45;;;;;;;1.30;0.90;;;16.50;96.10;;;;;;4931706;28;20034;-87
2023/03/30 05:19:11;;;;;;;2.60;1.10;;;16.30;95.90;;;;;;4937791;28;20033;-85
2023/03/30 05:21:37;;;;;;;2.53;0.95;;;16.20;96.20;;;;;;4934023;28;20027;-86
2023/03/30 05:24:03;;;;;;;2.17;0.90;;;16.20;96.20;;;;;;4918309;28;20241;-83
2023/03/30 05:26:29;;;;;;;1.67;1.00;;;16.10;96.50;;;;;;4937305;29;20114;-85
2023/03/30 05:28:55;;;;;;;1.52;0.85;;;16.00;96.80;;;;;;4913672;28;20113;-86
2023/03/30 05:31:21;;;;;;;2.30;0.98;;;16.00;96.70;;;;;;4931642;28;20036;-84
2023/03/30 05:33:46;;;;;;;2.50;1.10;;;16.00;97.30;;;;;;4941288;28;20043;-84
2023/03/30 05:36:13;;;;;;;3.05;1.00;;;16.00;96.90;;;;;;4936441;29;20023;-85
2023/03/30 05:38:40;;;;;;;2.33;1.10;;;15.90;97.10;;;;;;4929635;28;20081;-85
2023/03/30 05:41:06;;;;;;;2.05;1.00;;;15.90;97.10;;;;;;4922732;28;20929;-86
2023/03/30 05:43:32;;;;;;;2.53;1.13;;;15.90;97.20;;;;;;4932803;28;20035;-83
2023/03/30 05:45:58;;;;;;;1.40;1.00;;;15.80;97.30;;;;;;4935573;28;20281;-86
2023/03/30 05:48:24;;;;;;;2.53;1.00;;;15.80;97.50;;;;;;4938413;28;20041;-85
2023/03/30 05:50:50;;;;;;;2.17;1.20;;;15.80;97.60;;;;;;4942295;28;20687;-84
2023/03/30 05:53:16;;;;;;;2.75;1.02;;;15.80;97.50;;;;;;4933069;28;20031;-85
2023/03/30 05:55:46;;;;;;;1.87;1.10;;;15.70;97.70;;;;;;4931990;28;20303;-85
2023/03/30 05:58:12;;;;;;;2.50;0.90;;;15.70;97.50;;;;;;4912658;28;20600;-84
2023/03/30 06:00:40;;;;;;;2.72;0.93;;;15.70;97.90;;;;;;4933284;28;20015;-87
2023/03/30 06:03:06;;;;;;;3.95;1.10;;;15.70;97.70;;;;;;4920771;28;20026;-85
2023/03/30 06:05:34;;;;;;;4.33;1.07;;;15.60;97.70;;;;;;4925485;28;20028;-83
2023/03/30 06:08:00;;;;;;;3.20;0.95;;;15.70;97.60;;;;;;4934157;29;20024;-84
2023/03/30 06:10:26;;;;;;;2.20;0.90;;;15.60;97.90;;;;;;4929027;28;20446;-84
2023/03/30 06:12:52;;;;;;;3.88;1.27;;;15.60;97.90;;;;;;4935763;28;20468;-84
2023/03/30 06:15:18;;;;;;;2.63;1.00;;;15.60;98.10;;;;;;4910178;28;20024;-84
2023/03/30 06:17:44;;;;;;;4.10;0.90;;;15.60;98.20;;;;;;4934967;29;20031;-84
2023/03/30 06:20:11;;;;;;;2.20;0.90;;;15.60;98.20;;;;;;4924461;28;20063;-84
2023/03/30 06:22:40;;;;;;;3.17;1.00;;;15.60;98.20;;;;;;4937837;28;20066;-84
2023/03/30 06:25:07;;;;;;;2.38;0.90;;;15.70;98.30;;;;;;4928372;28;20039;-84
2023/03/30 06:27:34;;;;;;;5.47;1.10;;;15.70;98.40;;;;;;4938596;28;20433;-83
2023/03/30 06:30:00;;;;;;;2.08;1.00;;;15.70;98.50;;;;;;4917998;28;20023;-84
2023/03/30 06:32:26;;;;;;;4.50;1.00;;;15.70;98.40;;;;;;4948028;28;20662;-85
2023/03/30 06:34:52;;;;;;;3.30;1.20;;;15.70;98.40;;;;;;4921715;29;20444;-87
2023/03/30 06:37:19;;;;;;;4.80;0.93;;;15.70;98.50;;;;;;4925163;28;20429;-83
2023/03/30 06:39:45;;;;;;;3.33;1.00;;;15.70;98.30;;;;;;4934144;29;20059;-84
2023/03/30 06:42:11;;;;;;;4.43;1.07;;;15.70;98.50;;;;;;4913924;28;20318;-87
2023/03/30 06:44:38;;;;;;;5.25;1.13;;;15.70;98.60;;;;;;4909697;28;20533;-85
2023/03/30 06:47:05;;;;;;;4.75;1.10;;;15.70;98.40;;;;;;4936298;28;20074;-83
2023/03/30 06:49:32;;;;;;;5.10;1.10;;;15.70;98.20;;;;;;4931760;28;20201;-85
2023/03/30 06:51:58;;;;;;;5.63;1.20;;;15.70;98.30;;;;;;4931850;28;20030;-86
2023/03/30 06:54:23;;;;;;;4.97;1.20;;;15.70;98.20;;;;;;4930362;28;20047;-83
2023/03/30 06:56:51;;;;;;;5.18;1.17;;;15.70;98.10;;;;;;4921966;28;20538;-84
2023/03/30 06:59:17;;;;;;;6.00;1.10;;;15.70;98.20;;;;;;4932153;28;20050;-85
2023/03/30 07:01:43;;;;;;;3.73;1.00;;;15.80;98.50;;;;;;4906596;28;20111;-85
2023/03/30 07:04:09;;;;;;;3.33;1.10;;;15.70;98.90;;;;;;4933826;28;20110;-86
2023/03/30 07:06:35;;;;;;;3.92;0.98;;;15.90;99.70;;;;;;4940455;28;20047;-84
2023/03/30 07:09:03;;;;;;;5.97;1.10;;;16.00;99.90;;;;;;4906344;29;20277;-84
2023/03/30 07:11:28;;;;;;;4.00;0.90;;;16.30;99.90;;;;;;4919609;28;20026;-85
2023/03/30 07:13:57;;;;;;;4.37;1.10;;;16.50;99.90;;;;;;4936316;28;20473;-86
2023/03/30 07:16:24;;;;;;;3.10;0.90;;;16.70;99.90;;;;;;4917197;28;20035;-87
2023/03/30 07:18:50;;;;;;;5.40;1.02;;;17.00;99.90;;;;;;4932965;28;20448;-87
2023/03/30 07:21:18;;;;;;;3.25;1.10;;;17.30;99.90;;;;;;4933072;28;20023;-87
2023/03/30 07:23:43;;;;;;;4.43;1.05;;;17.50;99.90;;;;;;4939708;28;20031;-86
2023/03/30 07:26:10;;;;;;;4.03;1.10;;;17.70;99.90;;;;;;4947852;28;20567;-84
2023/03/30 07:28:37;;;;;;;5.72;0.90;;;17.80;99.90;;;;;;4928058;28;20031;-86
2023/03/30 07:31:12;;;;;;;5.05;1.00;;;18.00;99.90;;;;;;4910062;28;20614;-81
2023/03/30 07:33:37;;;;;;;3.88;1.10;;;18.10;98.40;;;;;;4931521;29;20059;-83
2023/03/30 07:36:03;;;;;;;4.27;1.00;;;18.20;99.50;;;;;;4927291;28;20347;-87
2023/03/30 07:38:29;;;;;;;4.75;1.00;;;18.20;98.70;;;;;;4927263;29;20028;-85
2023/03/30 07:40:56;;;;;;;3.72;1.15;;;18.20;98.70;;;;;;4929663;29;20027;-84
2023/03/30 07:43:21;;;;;;;6.17;1.30;;;18.30;98.80;;;;;;4937130;28;20098;-84
2023/03/30 07:45:47;;;;;;;5.32;1.17;;;18.30;99.20;;;;;;4916544;28;20121;-86
2023/03/30 07:48:13;;;;;;;4.77;1.10;;;18.50;98.90;;;;;;4929628;29;20387;-86
2023/03/30 07:50:38;;;;;;;6.00;1.15;;;18.40;98.20;;;;;;4933724;28;20035;-86
2023/03/30 07:53:04;;;;;;;4.60;1.20;;;18.50;98.00;;;;;;4945097;28;20132;-85
2023/03/30 07:55:30;;;;;;;6.37;1.00;;;18.50;98.30;;;;;;4926800;28;20042;-84
2023/03/30 07:57:57;;;;;;;6.88;1.25;;;18.50;98.60;;;;;;4932232;28;20381;-86
2023/03/30 08:00:24;;;;;;;5.97;1.23;;;18.70;98.70;;;;;;4922734;28;20148;-85
2023/03/30 08:02:50;;;;;;;6.63;1.30;;;18.80;98.80;;;;;;4916308;28;20023;-84
2023/03/30 08:05:16;;;;;;;6.13;1.13;;;18.90;98.30;;;;;;4934591;28;20302;-84
2023/03/30 08:07:43;;;;;;;6.77;1.13;;;19.00;98.20;;;;;;4931683;29;20362;-86
2023/03/30 08:10:10;;;;;;;6.38;1.20;;;19.20;98.90;;;;;;4920483;28;20521;-87
2023/03/30 08:12:35;;;;;;;5.18;1.08;;;19.30;98.60;;;;;;4931138;28;20030;-84
2023/03/30 08:15:02;;;;;;;4.72;1.35;;;19.50;98.00;;;;;;4933219;28;20228;-86
2023/03/30 08:17:28;;;;;;;5.07;1.40;;;19.60;97.00;;;;;;4917691;28;20401;-84
2023/03/30 08:19:55;;;;;;;5.57;1.20;;;19.50;96.70;;;;;;4924193;28;20035;-82
2023/03/30 08:22:21;;;;;;;4.82;1.15;;;19.50;96.10;;;;;;4931859;28;20033;-84
2023/03/30 08:24:47;;;;;;;6.10;1.20;;;19.30;95.80;;;;;;4938641;28;20106;-86
2023/03/30 08:27:12;;;;;;;7.40;1.13;;;19.20;95.70;;;;;;4916248;29;20355;-83
2023/03/30 08:29:39;;;;;;;3.47;0.90;;;19.00;96.00;;;;;;4918120;29;20034;-85
2023/03/30 08:32:05;;;;;;;5.18;1.20;;;18.80;95.70;;;;;;4900134;28;20097;-85
2023/03/30 08:34:31;;;;;;;4.57;1.40;;;18.70;95.70;;;;;;4926956;28;20155;-85
2023/03/30 08:36:57;;;;;;;4.13;0.98;;;18.50;95.90;;;;;;4948771;28;20066;-85
2023/03/30 08:39:23;;;;;;;6.03;1.40;;;18.40;95.70;;;;;;4925305;28;20402;-84
2023/03/30 08:42:12;;;;;;;5.43;1.23;;;18.30;95.70;;;;;;4921362;28;20028;-85
2023/03/30 08:44:41;;;;;;;6.07;1.17;;;18.10;95.10;;;;;;4931874;28;20412;-87
2023/03/30 08:47:16;;;;;;;5.60;1.10;;;18.10;96.20;;;;;;4914764;28;20034;-83
2023/03/30 08:49:58;;;;;;;6.05;1.15;;;18.10;95.90;;;;;;4924875;28;20280;-85
2023/03/30 08:52:25;;;;;;;7.75;1.65;;;18.30;96.50;;;;;;4914391;29;20523;-85
2023/03/30 08:54:51;;;;;;;7.43;1.47;;;18.60;98.90;;;;;;4925877;28;20031;-86
2023/03/30 08:57:52;;;;;;;7.43;1.50;;;19.00;98.70;;;;;;4909767;29;20517;-84
2023/03/30 09:00:28;;;;;;;6.70;1.33;;;19.40;94.30;;;;;;4918393;29;20039;-86
2023/03/30 09:03:21;;;;;;;5.88;1.50;;;19.90;98.30;;;;;;4908646;28;20102;-85
2023/03/30 09:05:53;;;;;;;5.93;1.23;;;20.40;96.90;;;;;;4921250;28;20477;-86
2023/03/30 09:08:27;;;;;;;5.90;1.40;;;20.70;97.10;;;;;;4930455;28;20110;-85
2023/03/30 09:10:59;;;;;;;7.45;1.40;;;21.00;97.30;;;;;;4941040;28;20736;-84
2023/03/30 09:13:30;;;;;;;5.07;1.20;;;21.10;96.50;;;;;;4918288;29;20114;-84
2023/03/30 09:16:21;;;;;;;4.80;1.63;;;21.20;95.80;;;;;;4919495;29;20497;-83
2023/03/30 09:18:55;;;;;;;5.25;1.33;;;21.20;89.80;;;;;;4897572;28;20041;-84
2023/03/30 09:21:25;;;;;;;3.77;1.00;;;21.10;93.80;;;;;;4926589;28;20411;-82
2023/03/30 09:23:52;;;;;;;5.43;1.48;;;21.00;94.70;;;;;;4933598;29;20462;-85
2023/03/30 09:26:22;;;;;;;5.60;1.05;;;20.90;94.20;;;;;;4921258;28;20023;-85
2023/03/30 09:28:48;;;;;;;5.10;1.40;;;20.70;93.30;;;;;;4930750;29;20041;-85
2023/03/30 09:31:23;;;;;;;7.07;1.10;;;20.50;93.80;;;;;;4926888;28;20031;-85
2023/03/30 09:34:32;;;;;;;4.65;1.13;;;20.30;92.70;;;;;;4931944;28;20504;-84
2023/03/30 09:37:17;;;;;;;6.68;1.52;;;20.20;92.50;;;;;;4931635;28;20035;-85
2023/03/30 09:39:47;;;;;;;5.90;1.40;;;20.00;94.60;;;;;;4934557;28;20062;-85
2023/03/30 09:42:24;;;;;;;4.23;1.10;;;20.00;94.50;;;;;;4929464;28;20374;-85
2023/03/30 09:45:19;;;;;;;4.47;1.30;;;20.00;93.70;;;;;;4948420;28;20040;-83
2023/03/30 09:47:45;;;;;;;6.28;1.20;;;20.10;94.50;;;;;;4933296;28;20531;-82
2023/03/30 09:50:35;;;;;;;4.13;1.10;;;20.30;97.30;;;;;;4901096;28;20019;-85
2023/03/30 09:53:05;;;;;;;4.75;1.20;;;20.60;94.40;;;;;;4928445;29;20508;-84
2023/03/30 09:55:36;;;;;;;5.70;1.47;;;20.70;95.40;;;;;;4927229;28;20300;-84
2023/03/30 09:58:20;;;;;;;5.55;1.20;;;20.70;93.90;;;;;;4928946;29;20283;-84
2023/03/30 10:00:59;;;;;;;4.85;1.17;;;20.60;92.30;;;;;;4910160;29;20051;-83
2023/03/30 10:03:26;;;;;;;5.97;1.45;;;20.50;93.90;;;;;;4924292;28;20031;-85
2023/03/30 10:06:06;;;;;;;3.38;1.02;;;20.30;93.60;;;;;;4887719;28;20031;-84
2023/03/30 10:08:49;;;;;;;3.13;1.03;;;20.10;92.80;;;;;;4949161;28;20036;-85
2023/03/30 10:11:20;;;;;;;5.32;1.10;;;20.00;94.80;;;;;;4948631;28;20035;-84
2023/03/30 10:13:49;;;;;;;4.65;1.45;;;20.20;95.60;;;;;;4907476;28;20035;-83
2023/03/30 10:16:28;;;;;;;4.53;1.25;;;20.40;97.10;;;;;;4933594;28;20434;-83
2023/03/30 10:18:59;;;;;;;3.72;1.38;;;20.70;94.40;;;;;;4920708;29;20062;-84
2023/03/30 10:21:29;;;;;;;4.93;1.40;;;21.10;97.50;;;;;;4919057;28;20091;-85
2023/03/30 10:24:08;;;;;;;4.70;1.30;;;21.60;98.00;;;;;;4927155;28;20479;-82
2023/03/30 10:26:36;;;;;;;4.88;1.08;;;21.90;96.10;;;;;;4930029;29;20145;-84
2023/03/30 10:29:03;;;;;;;3.75;1.05;;;22.10;94.90;;;;;;4925172;29;20059;-83
2023/03/30 10:31:32;;;;;;;3.97;1.08;;;22.00;94.30;;;;;;4931720;28;20445;-85
2023/03/30 10:34:00;;;;;;;3.37;0.90;;;21.90;94.30;;;;;;4947731;28;20511;-83
2023/03/30 10:36:33;;;;;;;3.42;1.05;;;21.80;93.80;;;;;;4936314;28;20328;-84
2023/03/30 10:39:32;;;;;;;4.43;1.10;;;21.70;92.70;;;;;;4927918;29;20035;-83
2023/03/30 10:42:04;;;;;;;3.42;1.00;;;21.50;86.00;;;;;;4914899;29;20578;-83
2023/03/30 10:44:54;;;;;;;4.03;1.20;;;21.30;91.40;;;;;;4923922;28;20094;-83
2023/03/30 10:47:36;;;;;;;3.70;1.00;;;21.00;90.80;;;;;;4935440;28;20531;-86
2023/03/30 10:50:20;;;;;;;4.10;1.00;;;20.90;92.20;;;;;;4935930;29;20126;-87
2023/03/30 10:53:03;;;;;;;3.88;1.20;;;20.70;92.60;;;;;;4911253;28;20539;-82
2023/03/30 10:55:32;;;;;;;5.85;0.98;;;20.60;92.30;;;;;;4928915;29;20027;-84
2023/03/30 10:58:32;;;;;;;4.05;0.90;;;20.40;92.90;;;;;;4931994;29;20038;-84
2023/03/30 11:01:14;;;;;;;4.00;1.30;;;20.30;91.70;;;;;;4927385;29;20062;-83
2023/03/30 11:03:45;;;;;;;5.22;1.30;;;20.20;92.50;;;;;;4944076;28;20322;-82
2023/03/30 11:06:21;;;;;;;4.40;1.10;;;20.30;93.50;;;;;;4927873;28;20035;-84
2023/03/30 11:08:50;;;;;;;3.85;1.20;;;20.40;93.00;;;;;;4901461;29;20031;-83
2023/03/30 11:11:22;;;;;;;4.28;1.02;;;20.50;93.50;;;;;;4936669;29;20030;-83
2023/03/30 11:14:02;;;;;;;3.17;0.80;;;20.60;93.10;;;;;;4930235;29;20059;-84
2023/03/30 11:16:39;;;;;;;3.60;1.00;;;20.70;93.10;;;;;;4925734;28;20046;-82
2023/03/30 11:19:20;;;;;;;5.25;1.08;;;20.90;93.30;;;;;;4925793;28;20027;-86
2023/03/30 11:22:13;;;;;;;4.72;1.40;;;21.10;93.60;;;;;;4946850;28;20325;-86
2023/03/30 11:24:42;;;;;;;5.60;1.02;;;21.30;94.10;;;;;;4898966;28;20071;-83
2023/03/30 11:27:30;;;;;;;3.70;1.20;;;21.50;95.50;;;;;;4931471;28;20070;-81
2023/03/30 11:30:08;;;;;;;6.38;1.45;;;21.80;90.70;;;;;;4923292;28;20062;-86
2023/03/30 11:32:56;;;;;;;4.68;1.33;;;21.90;93.20;;;;;;4927083;29;20058;-86
2023/03/30 11:35:59;;;;;;;6.40;1.38;;;22.00;91.50;;;;;;4932616;29;20413;-85
2023/03/30 11:38:48;;;;;;;5.75;1.67;;;22.10;91.50;;;;;;4885767;29;20043;-84
2023/03/30 11:41:18;;;;;;;6.87;1.20;;;22.20;91.20;;;;;;4918981;28;20027;-85
2023/03/30 11:43:44;;;;;;;6.72;1.20;;;22.20;93.30;;;;;;4926131;29;20082;-87
2023/03/30 11:46:24;;;;;;;6.47;1.33;;;22.20;93.40;;;;;;4942164;28;20540;-81
2023/03/30 11:49:36;;;;;;;5.75;1.30;;;22.10;91.60;;;;;;4930072;28;20139;-83
2023/03/30 11:52:20;;;;;;;3.20;0.87;;;22.20;91.40;;;;;;4894022;28;20035;-84
2023/03/30 11:54:58;;;;;;;4.88;1.10;;;22.30;93.60;;;;;;4910553;28;20035;-87
2023/03/30 11:57:29;;;;;;;3.83;1.20;;;22.60;92.60;;;;;;4903478;28;20058;-87
2023/03/30 12:00:18;;;;;;;4.38;1.10;;;22.80;93.40;;;;;;4927575;28;20051;-87
2023/03/30 12:03:07;;;;;;;5.95;1.40;;;22.90;91.50;;;;;;4927189;28;20238;-82
2023/03/30 12:06:17;;;;;;;5.93;1.20;;;22.90;91.00;;;;;;4929412;28;20118;-85
2023/03/30 12:09:15;;;;;;;5.97;1.30;;;22.80;87.50;;;;;;4912110;28;20043;-84
2023/03/30 12:11:46;;;;;;;5.95;0.95;;;22.70;89.00;;;;;;4912617;28;20473;-83
2023/03/30 12:14:30;;;;;;;4.68;1.30;;;22.70;91.10;;;;;;4919560;29;20110;-84
2023/03/30 12:17:01;;;;;;;4.13;1.35;;;22.80;91.20;;;;;;4924912;28;20684;-85
2023/03/30 12:19:35;;;;;;;4.77;1.10;;;23.00;93.60;;;;;;4947842;28;20082;-85
2023/03/30 12:22:09;;;;;;;4.10;1.20;;;23.30;93.40;;;;;;4946219;28;20094;-83
2023/03/30 12:24:40;;;;;;;3.63;1.30;;;23.60;92.80;;;;;;4914137;28;20130;-86
2023/03/30 12:27:09;;;;;;;4.30;1.30;;;24.00;92.70;;;;;;4935505;28;20034;-86
2023/03/30 12:29:53;;;;;;;4.57;1.58;;;24.30;93.00;;;;;;4933790;28;20618;-85
2023/03/30 12:32:27;;;;;;;4.60;1.33;;;24.50;80.50;;;;;;4925985;28;20035;-84
2023/03/30 12:34:53;;;;;;;4.95;1.30;;;24.50;88.60;;;;;;4932144;29;20051;-85
2023/03/30 12:37:33;;;;;;;4.15;1.02;;;24.60;91.10;;;;;;4919865;29;20609;-86
2023/03/30 12:40:07;;;;;;;4.85;1.40;;;24.60;88.40;;;;;;4928860;28;21191;-84
2023/03/30 12:42:38;;;;;;;4.00;1.27;;;24.60;85.70;;;;;;4926846;28;20685;-86
2023/03/30 12:45:30;;;;;;;5.50;1.50;;;24.50;84.20;;;;;;4920051;29;20600;-85
2023/03/30 12:48:03;;;;;;;4.72;1.30;;;24.30;75.10;;;;;;4939555;28;20493;-85
2023/03/30 12:50:45;;;;;;;4.82;1.40;;;23.90;81.50;;;;;;4927947;28;20588;-85
2023/03/30 12:53:35;;;;;;;4.40;1.27;;;23.50;79.20;;;;;;4934785;28;20488;-84
2023/03/30 12:56:45;;;;;;;4.95;1.40;;;23.40;84.00;;;;;;4918296;28;20035;-86
2023/03/30 12:59:53;;;;;;;4.60;1.20;;;23.50;85.60;;;;;;4905808;29;20572;-85
2023/03/30 13:02:54;;;;;;;4.47;1.30;;;23.70;76.80;;;;;;4930341;29;20028;-85
2023/03/30 13:05:32;;;;;;;3.75;1.10;;;23.90;83.50;;;;;;4928732;29;20101;-85
2023/03/30 13:08:06;;;;;;;3.72;1.15;;;23.80;82.20;;;;;;4930275;29;20031;-86
2023/03/30 13:10:37;;;;;;;5.95;1.40;;;23.60;79.30;;;;;;4918246;28;20940;-85
2023/03/30 13:13:04;;;;;;;4.43;1.10;;;23.40;81.90;;;;;;4928639;29;20519;-84
2023/03/30 13:15:53;;;;;;;4.00;0.90;;;23.10;82.70;;;;;;4938010;28;20557;-83